Time;durP1;ratioP1;P1;durP2;ratioP2;P2;SDS_P1;SDS_P2;PMS_P1;PMS_P2;Temp;Humidity;BMP_temperature;BMP_pressure;BME280_temperature;BME280_humidity;BME280_pressure;Samples;Min_cycle;Max_cycle;Signal;HPM_P1;HPM_P2
2022/07/02 00:02:13;;;;;;;0.65;0.65;;;22.80;71.70;;;;;;4959320;28;20228;-72
2022/07/02 00:04:51;;;;;;;0.60;0.60;;;22.80;71.70;;;;;;4975544;28;20215;-74
2022/07/02 00:07:17;;;;;;;0.60;0.60;;;22.70;71.50;;;;;;4976055;28;20255;-74
2022/07/02 00:09:42;;;;;;;0.60;0.57;;;22.70;71.50;;;;;;4975912;28;20205;-72
2022/07/02 00:12:11;;;;;;;0.77;0.60;;;22.80;71.60;;;;;;4976047;28;20177;-74
2022/07/02 00:14:37;;;;;;;0.63;0.63;;;22.80;71.50;;;;;;4975468;28;20212;-72
2022/07/02 00:17:03;;;;;;;0.60;0.60;;;22.70;71.40;;;;;;4959644;28;20185;-73
2022/07/02 00:19:30;;;;;;;1.10;0.60;;;22.80;71.50;;;;;;4992066;28;20200;-73
2022/07/02 00:21:58;;;;;;;0.80;0.80;;;22.80;71.50;;;;;;4956077;28;20193;-72
2022/07/02 00:24:24;;;;;;;0.65;0.65;;;22.80;71.50;;;;;;4970137;28;20188;-72
2022/07/02 00:26:57;;;;;;;0.43;0.43;;;22.80;71.50;;;;;;4959974;28;20328;-73
2022/07/02 00:29:52;;;;;;;0.98;0.88;;;22.80;71.40;;;;;;4975871;28;20209;-73
2022/07/02 00:32:19;;;;;;;0.60;0.60;;;22.80;71.40;;;;;;4975692;28;20224;-73
2022/07/02 00:34:46;;;;;;;0.82;0.63;;;22.70;71.40;;;;;;4975061;28;20205;-72
2022/07/02 00:37:13;;;;;;;0.65;0.65;;;22.70;71.30;;;;;;4975506;28;20173;-73
2022/07/02 00:39:40;;;;;;;0.60;0.60;;;22.80;71.50;;;;;;4991735;28;20197;-73
2022/07/02 00:42:10;;;;;;;0.60;0.60;;;22.80;71.50;;;;;;4991823;28;20184;-73
2022/07/02 00:44:36;;;;;;;0.70;0.70;;;22.80;71.50;;;;;;4975254;28;20216;-72
2022/07/02 00:47:05;;;;;;;0.60;0.60;;;22.80;71.40;;;;;;4991961;28;20196;-74
2022/07/02 00:49:34;;;;;;;0.60;0.60;;;22.70;71.30;;;;;;4958854;28;20684;-73
2022/07/02 00:52:01;;;;;;;0.80;0.80;;;22.80;71.40;;;;;;4967491;28;20200;-72
2022/07/02 00:54:27;;;;;;;1.10;0.70;;;22.80;71.30;;;;;;4943914;28;20200;-72
2022/07/02 00:56:54;;;;;;;0.77;0.73;;;22.70;71.30;;;;;;4956088;28;20182;-73
2022/07/02 00:59:25;;;;;;;0.70;0.70;;;22.70;71.30;;;;;;4956433;28;20189;-73
2022/07/02 01:01:51;;;;;;;0.70;0.70;;;22.70;71.20;;;;;;4944502;29;20241;-72
2022/07/02 01:04:19;;;;;;;0.70;0.70;;;22.70;71.20;;;;;;4920432;29;20186;-72
2022/07/02 01:06:48;;;;;;;0.60;0.60;;;22.70;71.10;;;;;;4921247;29;20182;-73
2022/07/02 01:12:01;;;;;;;1.20;0.60;;;22.70;71.20;;;;;;4936800;29;20194;-72
2022/07/02 01:14:28;;;;;;;0.85;0.85;;;22.70;71.20;;;;;;4920680;29;20183;-72
2022/07/02 01:16:55;;;;;;;0.60;0.60;;;22.70;71.20;;;;;;4920861;29;20209;-73
2022/07/02 01:19:23;;;;;;;0.60;0.60;;;22.70;71.10;;;;;;4936957;29;20229;-73
2022/07/02 01:22:23;;;;;;;0.50;0.50;;;22.70;71.10;;;;;;4954761;28;20224;-72
2022/07/02 01:24:52;;;;;;;0.77;0.77;;;22.70;71.10;;;;;;4973026;28;20218;-73
2022/07/02 01:27:21;;;;;;;0.65;0.65;;;22.70;71.90;;;;;;4975316;28;20199;-72
2022/07/02 01:29:47;;;;;;;1.25;0.70;;;22.70;71.10;;;;;;4992555;28;20197;-73
2022/07/02 01:32:14;;;;;;;0.70;0.70;;;22.70;71.10;;;;;;4975442;28;20185;-73
2022/07/02 01:34:42;;;;;;;0.70;0.70;;;22.70;71.10;;;;;;4974708;28;20205;-72
2022/07/02 01:37:15;;;;;;;0.70;0.70;;;22.70;71.10;;;;;;4991358;28;20173;-72
2022/07/02 01:39:43;;;;;;;0.70;0.70;;;22.70;71.00;;;;;;4975014;28;20247;-72
2022/07/02 01:42:09;;;;;;;0.70;0.70;;;22.70;71.00;;;;;;4975344;28;20259;-73
2022/07/02 01:44:38;;;;;;;0.57;0.57;;;22.70;71.00;;;;;;4974725;28;20249;-72
2022/07/02 01:47:07;;;;;;;0.70;0.70;;;22.70;71.00;;;;;;4975269;28;20205;-73
2022/07/02 01:49:34;;;;;;;0.60;0.60;;;22.70;71.10;;;;;;4991331;28;20680;-72
2022/07/02 01:52:01;;;;;;;0.70;0.70;;;22.70;71.80;;;;;;4971133;28;20174;-72
2022/07/02 01:54:27;;;;;;;0.60;0.60;;;22.70;71.00;;;;;;4958114;28;20278;-72
2022/07/02 01:56:53;;;;;;;0.70;0.70;;;22.70;71.00;;;;;;4975046;28;20274;-72
2022/07/02 01:59:19;;;;;;;0.60;0.60;;;22.70;71.00;;;;;;4992259;28;20189;-73
2022/07/02 02:01:46;;;;;;;0.57;0.57;;;22.70;71.00;;;;;;4961883;28;20193;-72
2022/07/02 02:04:11;;;;;;;0.70;0.70;;;22.70;71.00;;;;;;4994079;28;20220;-73
2022/07/02 02:06:38;;;;;;;0.57;0.57;;;22.60;70.80;;;;;;4978212;28;20209;-73
2022/07/02 02:09:05;;;;;;;0.52;0.52;;;22.70;70.90;;;;;;4994166;28;20216;-73
2022/07/02 02:11:31;;;;;;;0.80;0.80;;;22.70;71.00;;;;;;4963874;28;20177;-72
2022/07/02 02:14:00;;;;;;;0.70;0.70;;;22.70;71.00;;;;;;4977798;28;20211;-72
2022/07/02 02:16:28;;;;;;;0.60;0.60;;;22.60;70.80;;;;;;4995685;28;20200;-72
2022/07/02 02:18:57;;;;;;;1.10;0.80;;;22.70;71.00;;;;;;4954416;28;20228;-72
2022/07/02 02:21:25;;;;;;;0.52;0.52;;;22.60;70.80;;;;;;4965028;28;20250;-72
2022/07/02 02:23:53;;;;;;;0.60;0.60;;;22.60;70.70;;;;;;4969731;28;20192;-72
2022/07/02 02:26:20;;;;;;;0.70;0.70;;;22.60;70.70;;;;;;4993665;28;20201;-72
2022/07/02 02:28:46;;;;;;;0.70;0.70;;;22.60;70.60;;;;;;4994262;28;20189;-72
2022/07/02 02:31:12;;;;;;;0.77;0.77;;;22.60;70.60;;;;;;4978056;28;20227;-72
2022/07/02 02:33:38;;;;;;;0.60;0.60;;;22.60;70.80;;;;;;4962170;28;20466;-72
2022/07/02 02:36:05;;;;;;;0.70;0.70;;;22.60;70.70;;;;;;4977115;28;20212;-72
2022/07/02 02:38:31;;;;;;;0.63;0.60;;;22.60;70.70;;;;;;4977571;28;20185;-72
2022/07/02 02:40:57;;;;;;;2.83;0.80;;;22.60;70.70;;;;;;4977678;28;20191;-72
2022/07/02 02:43:23;;;;;;;0.60;0.60;;;22.60;70.70;;;;;;4994126;28;20228;-72
2022/07/02 02:45:48;;;;;;;0.75;0.75;;;22.60;70.70;;;;;;4977043;28;20243;-72
2022/07/02 02:48:16;;;;;;;0.70;0.60;;;22.60;70.60;;;;;;4977772;28;20267;-72
2022/07/02 02:50:42;;;;;;;0.60;0.60;;;22.60;70.70;;;;;;4976831;28;20216;-72
2022/07/02 02:53:07;;;;;;;0.60;0.60;;;22.60;70.60;;;;;;4961521;28;20181;-72
2022/07/02 02:55:33;;;;;;;0.45;0.45;;;22.60;70.60;;;;;;4976877;28;20304;-72
2022/07/02 02:57:59;;;;;;;0.50;0.50;;;22.60;70.70;;;;;;4977417;28;20280;-72
2022/07/02 03:00:25;;;;;;;0.55;0.55;;;22.60;70.60;;;;;;4977463;28;20189;-72
2022/07/02 03:02:51;;;;;;;0.60;0.60;;;22.60;70.60;;;;;;4977152;28;20193;-72
2022/07/02 03:05:16;;;;;;;0.70;0.70;;;22.60;70.60;;;;;;4976673;28;20252;-72
2022/07/02 03:07:42;;;;;;;0.60;0.60;;;22.60;70.50;;;;;;4985432;28;20181;-72
2022/07/02 03:10:09;;;;;;;0.43;0.43;;;22.60;70.60;;;;;;4975144;28;20296;-72
2022/07/02 03:12:34;;;;;;;0.60;0.60;;;22.60;70.50;;;;;;4974362;28;20266;-72
2022/07/02 03:15:00;;;;;;;0.60;0.60;;;22.60;70.50;;;;;;4957885;28;20277;-72
2022/07/02 03:17:26;;;;;;;0.77;0.77;;;22.60;70.50;;;;;;4957525;28;20210;-72
2022/07/02 03:19:51;;;;;;;0.95;0.60;;;22.60;70.50;;;;;;4957927;28;20269;-72
2022/07/02 03:22:18;;;;;;;0.63;0.63;;;22.60;70.30;;;;;;4965455;28;20197;-72
2022/07/02 03:24:44;;;;;;;0.50;0.50;;;22.60;70.40;;;;;;4956827;28;20221;-72
2022/07/02 03:27:10;;;;;;;0.75;0.73;;;22.60;70.50;;;;;;4973736;28;20189;-72
2022/07/02 03:29:36;;;;;;;0.60;0.60;;;22.60;70.40;;;;;;4974074;28;20237;-72
2022/07/02 03:32:02;;;;;;;0.60;0.60;;;22.60;70.30;;;;;;4957655;28;20228;-72
2022/07/02 03:34:28;;;;;;;0.75;0.70;;;22.60;70.40;;;;;;4956810;28;20185;-72
2022/07/02 03:36:54;;;;;;;0.40;0.40;;;22.50;70.40;;;;;;4973825;28;20213;-72
2022/07/02 03:39:20;;;;;;;0.60;0.60;;;22.60;70.40;;;;;;4957105;28;20748;-72
2022/07/02 03:41:45;;;;;;;0.43;0.43;;;22.60;70.50;;;;;;4957270;28;20268;-72
2022/07/02 03:44:11;;;;;;;0.50;0.50;;;22.60;70.40;;;;;;4956789;28;20192;-72
2022/07/02 03:46:37;;;;;;;0.50;0.50;;;22.60;70.30;;;;;;4957207;28;20232;-72
2022/07/02 03:49:03;;;;;;;0.50;0.50;;;22.60;71.30;;;;;;4956970;28;20217;-72
2022/07/02 03:51:29;;;;;;;0.60;0.60;;;22.50;70.30;;;;;;4964140;28;20618;-72
2022/07/02 03:53:54;;;;;;;0.85;0.70;;;22.60;70.40;;;;;;4985583;28;20188;-72
2022/07/02 03:56:20;;;;;;;0.70;0.70;;;22.60;70.40;;;;;;4975776;28;20212;-72
2022/07/02 03:58:46;;;;;;;0.50;0.50;;;22.60;70.50;;;;;;4993858;28;20227;-72
2022/07/02 04:01:12;;;;;;;0.50;0.50;;;22.50;70.30;;;;;;4992274;28;20181;-72
2022/07/02 04:03:38;;;;;;;0.60;0.60;;;22.60;70.50;;;;;;4976456;28;20181;-72
2022/07/02 04:06:04;;;;;;;0.50;0.50;;;22.60;70.50;;;;;;4975858;28;20203;-72
2022/07/02 04:08:30;;;;;;;0.65;0.65;;;22.60;70.50;;;;;;4976131;28;20189;-72
2022/07/02 04:10:56;;;;;;;0.60;0.60;;;22.60;70.50;;;;;;4976024;28;20706;-72
2022/07/02 04:13:21;;;;;;;0.60;0.60;;;22.50;70.40;;;;;;4976455;28;20192;-72
2022/07/02 04:15:47;;;;;;;0.60;0.60;;;22.50;70.40;;;;;;4975758;28;20220;-72
2022/07/02 04:18:13;;;;;;;0.60;0.60;;;22.50;70.40;;;;;;4992430;28;20188;-72
2022/07/02 04:20:38;;;;;;;0.60;0.60;;;22.50;70.40;;;;;;4991619;28;20195;-72
2022/07/02 04:23:04;;;;;;;0.60;0.60;;;22.50;70.40;;;;;;4971735;28;20200;-72
2022/07/02 04:25:30;;;;;;;0.85;0.60;;;22.50;70.40;;;;;;4956220;28;20204;-72
2022/07/02 04:27:56;;;;;;;0.98;0.65;;;22.60;70.50;;;;;;4956885;28;20189;-72
2022/07/02 04:30:22;;;;;;;0.60;0.60;;;22.50;70.50;;;;;;4956587;28;20260;-72
2022/07/02 04:32:48;;;;;;;0.52;0.52;;;22.50;70.50;;;;;;4972784;28;20182;-72
2022/07/02 04:35:13;;;;;;;0.70;0.70;;;22.50;70.50;;;;;;4955883;28;20217;-72
2022/07/02 04:37:40;;;;;;;0.70;0.70;;;22.50;70.50;;;;;;4956282;28;20574;-72
2022/07/02 04:40:07;;;;;;;0.50;0.50;;;22.50;70.50;;;;;;4956470;28;20198;-72
2022/07/02 04:42:33;;;;;;;0.40;0.40;;;22.50;70.50;;;;;;4956525;28;20662;-72
2022/07/02 04:44:59;;;;;;;0.40;0.40;;;22.50;70.50;;;;;;4955664;28;20209;-72
2022/07/02 04:47:24;;;;;;;0.45;0.45;;;22.50;70.60;;;;;;4956064;28;20313;-72
2022/07/02 04:49:50;;;;;;;1.20;0.52;;;22.50;70.60;;;;;;4940257;28;20205;-72
2022/07/02 04:52:16;;;;;;;0.55;0.55;;;22.50;70.60;;;;;;4963851;28;20186;-72
2022/07/02 04:54:42;;;;;;;0.70;0.70;;;22.50;70.60;;;;;;4972118;28;20204;-72
2022/07/02 04:57:08;;;;;;;0.60;0.60;;;22.50;70.60;;;;;;4975508;28;20188;-72
2022/07/02 04:59:34;;;;;;;0.50;0.50;;;22.50;70.60;;;;;;4975409;28;20180;-72
2022/07/02 05:02:00;;;;;;;0.40;0.40;;;22.50;70.60;;;;;;4992617;28;20284;-72
2022/07/02 05:04:26;;;;;;;0.60;0.60;;;22.50;70.60;;;;;;4975106;28;20645;-72
2022/07/02 05:06:52;;;;;;;0.60;0.60;;;22.50;70.70;;;;;;4949362;28;20194;-72
2022/07/02 05:09:17;;;;;;;0.82;0.50;;;22.50;70.60;;;;;;4955507;28;20209;-72
2022/07/02 05:11:43;;;;;;;0.50;0.50;;;22.50;70.70;;;;;;4955948;28;20264;-72
2022/07/02 05:14:09;;;;;;;0.50;0.50;;;22.50;70.60;;;;;;4940116;28;20182;-72
2022/07/02 05:16:35;;;;;;;0.70;0.70;;;22.50;70.70;;;;;;4955355;28;20208;-72
2022/07/02 05:19:00;;;;;;;0.63;0.63;;;22.50;70.70;;;;;;4955843;28;20181;-72
2022/07/02 05:21:26;;;;;;;0.70;0.60;;;22.50;70.70;;;;;;4963028;28;20232;-72
2022/07/02 05:23:52;;;;;;;0.63;0.63;;;22.50;70.70;;;;;;4983178;28;20695;-72
2022/07/02 05:26:19;;;;;;;0.55;0.55;;;22.50;70.80;;;;;;4958629;28;20304;-72
2022/07/02 05:28:45;;;;;;;0.50;0.50;;;22.40;70.70;;;;;;4975198;28;20200;-72
2022/07/02 05:31:11;;;;;;;0.65;0.65;;;22.50;70.80;;;;;;4975223;28;20212;-72
2022/07/02 05:33:36;;;;;;;0.70;0.70;;;22.50;70.80;;;;;;4975192;28;20288;-72
2022/07/02 05:36:03;;;;;;;0.60;0.60;;;22.50;70.80;;;;;;4976597;28;20213;-72
2022/07/02 05:38:29;;;;;;;0.60;0.60;;;22.50;70.90;;;;;;4978631;28;20188;-72
2022/07/02 05:40:55;;;;;;;0.50;0.50;;;22.50;70.80;;;;;;4962501;28;20189;-72
2022/07/02 05:43:20;;;;;;;0.40;0.40;;;22.50;70.90;;;;;;4978749;28;20192;-72
2022/07/02 05:45:48;;;;;;;0.60;0.60;;;22.50;71.30;;;;;;4962406;28;20665;-72
2022/07/02 05:48:14;;;;;;;0.50;0.50;;;22.50;70.90;;;;;;4963475;28;20228;-74
2022/07/02 05:50:40;;;;;;;0.60;0.60;;;22.50;70.90;;;;;;4978153;28;20211;-72
2022/07/02 05:53:06;;;;;;;0.50;0.50;;;22.50;70.90;;;;;;4975504;28;20186;-72
2022/07/02 05:55:32;;;;;;;0.60;0.60;;;22.50;70.90;;;;;;4975797;28;20208;-72
2022/07/02 05:57:57;;;;;;;0.60;0.60;;;22.50;70.90;;;;;;4959505;28;20170;-72
2022/07/02 06:00:23;;;;;;;0.50;0.50;;;22.50;70.90;;;;;;4959026;28;20194;-73
2022/07/02 06:02:49;;;;;;;0.50;0.50;;;22.50;71.00;;;;;;4945196;29;20198;-72
2022/07/02 06:07:59;;;;;;;0.52;0.52;;;22.50;70.90;;;;;;4939627;29;20805;-71
2022/07/02 06:10:25;;;;;;;0.52;0.52;;;22.50;70.90;;;;;;4923696;29;20309;-72
2022/07/02 06:12:52;;;;;;;0.50;0.50;;;22.50;70.90;;;;;;4924149;29;20183;-72
2022/07/02 06:15:20;;;;;;;0.50;0.50;;;22.50;70.90;;;;;;4939081;29;20210;-72
2022/07/02 06:17:46;;;;;;;0.60;0.60;;;22.50;70.90;;;;;;4939891;29;20269;-72
2022/07/02 06:20:14;;;;;;;0.60;0.60;;;22.50;70.90;;;;;;4939654;29;20179;-71
2022/07/02 06:22:40;;;;;;;0.55;0.55;;;22.50;70.90;;;;;;4946117;28;20213;-71
2022/07/02 06:25:08;;;;;;;0.60;0.60;;;22.60;70.90;;;;;;4977187;28;20287;-71
2022/07/02 06:27:34;;;;;;;0.70;0.70;;;22.50;70.80;;;;;;4995410;28;20678;-72
2022/07/02 06:30:03;;;;;;;0.70;0.70;;;22.50;70.80;;;;;;4977954;28;20244;-72
2022/07/02 06:32:29;;;;;;;0.40;0.40;;;22.60;70.90;;;;;;4995394;28;20367;-72
2022/07/02 06:34:56;;;;;;;0.50;0.50;;;22.60;70.90;;;;;;4951842;28;20214;-72
2022/07/02 06:37:22;;;;;;;0.60;0.60;;;22.60;70.90;;;;;;4971889;28;20272;-72
2022/07/02 06:39:49;;;;;;;0.60;0.60;;;22.60;70.90;;;;;;4952990;29;20257;-72
2022/07/02 06:42:26;;;;;;;0.65;0.65;;;22.50;70.80;;;;;;4945494;28;20186;-72
2022/07/02 06:44:57;;;;;;;0.63;0.63;;;22.60;70.90;;;;;;4957709;28;20209;-71
2022/07/02 06:47:23;;;;;;;0.57;0.57;;;22.50;70.80;;;;;;4957044;28;20186;-71
2022/07/02 06:49:50;;;;;;;0.60;0.60;;;22.60;70.90;;;;;;4957993;28;20220;-72
2022/07/02 06:52:17;;;;;;;0.50;0.50;;;22.50;70.80;;;;;;4966293;28;20240;-72
2022/07/02 06:54:44;;;;;;;0.40;0.40;;;22.50;70.80;;;;;;4959977;28;20209;-71
2022/07/02 06:57:10;;;;;;;0.60;0.60;;;22.60;70.90;;;;;;4944624;28;20196;-71
2022/07/02 06:59:36;;;;;;;0.60;0.60;;;22.60;70.90;;;;;;4924277;28;20198;-71
2022/07/02 07:02:04;;;;;;;0.43;0.43;;;22.60;71.00;;;;;;4958298;28;20260;-72
2022/07/02 07:04:30;;;;;;;0.40;0.40;;;22.50;70.80;;;;;;4957424;28;20194;-72
2022/07/02 07:06:57;;;;;;;0.50;0.50;;;22.50;70.90;;;;;;4957883;28;20281;-72
2022/07/02 07:09:28;;;;;;;1.23;0.50;;;22.60;71.10;;;;;;4957919;28;20232;-72
2022/07/02 07:11:54;;;;;;;0.50;0.50;;;22.60;70.90;;;;;;4957480;28;20192;-72
2022/07/02 07:14:20;;;;;;;0.50;0.50;;;22.60;70.80;;;;;;4957333;28;20204;-72
2022/07/02 07:16:46;;;;;;;0.40;0.40;;;22.60;70.60;;;;;;4941182;28;20186;-72
2022/07/02 07:19:12;;;;;;;0.50;0.50;;;22.60;70.60;;;;;;4957663;28;20190;-72
2022/07/02 07:21:40;;;;;;;0.60;0.60;;;22.50;70.40;;;;;;4960340;28;20231;-72
2022/07/02 07:24:07;;;;;;;0.52;0.52;;;22.60;70.70;;;;;;4957461;28;20197;-72
2022/07/02 07:26:34;;;;;;;0.40;0.40;;;22.60;70.40;;;;;;4956678;28;20721;-72
2022/07/02 07:29:01;;;;;;;1.15;0.52;;;22.60;70.00;;;;;;4957206;28;20196;-72
2022/07/02 07:31:30;;;;;;;0.35;0.35;;;22.60;70.50;;;;;;4941647;28;20185;-72
2022/07/02 07:33:56;;;;;;;0.60;0.60;;;22.60;70.30;;;;;;4957554;28;20638;-72
2022/07/02 07:36:26;;;;;;;0.60;0.60;;;22.60;70.30;;;;;;4956574;28;20228;-72
2022/07/02 07:38:53;;;;;;;0.70;0.70;;;22.60;70.30;;;;;;4957252;28;20196;-72
2022/07/02 07:41:21;;;;;;;0.50;0.50;;;22.60;70.20;;;;;;4957150;28;20200;-72
2022/07/02 07:43:47;;;;;;;0.68;0.65;;;22.60;70.10;;;;;;4957296;28;20193;-72
2022/07/02 07:46:13;;;;;;;0.50;0.50;;;22.60;70.20;;;;;;4956705;28;20205;-72
2022/07/02 07:48:39;;;;;;;0.70;0.70;;;22.60;70.10;;;;;;4957193;28;20182;-72
2022/07/02 07:51:05;;;;;;;1.05;0.50;;;22.60;70.00;;;;;;4978503;28;20219;-72
2022/07/02 07:53:32;;;;;;;0.57;0.57;;;22.60;69.90;;;;;;4968176;28;20619;-72
2022/07/02 07:55:58;;;;;;;0.60;0.60;;;22.60;69.80;;;;;;4972318;28;20210;-72
2022/07/02 07:58:24;;;;;;;0.50;0.50;;;22.60;69.80;;;;;;4969570;28;20185;-72
2022/07/02 08:00:50;;;;;;;0.50;0.50;;;22.70;69.80;;;;;;4941072;28;20773;-72
2022/07/02 08:03:18;;;;;;;0.60;0.60;;;22.60;69.60;;;;;;4956951;28;20190;-72
2022/07/02 08:05:47;;;;;;;0.52;0.52;;;22.70;69.60;;;;;;4956292;28;20272;-73
2022/07/02 08:08:14;;;;;;;0.47;0.47;;;22.60;69.50;;;;;;4956507;28;20567;-72
2022/07/02 08:10:41;;;;;;;0.60;0.60;;;22.70;69.30;;;;;;4973775;28;20217;-72
2022/07/02 08:13:07;;;;;;;0.60;0.60;;;22.60;69.10;;;;;;4956308;28;20181;-72
2022/07/02 08:15:33;;;;;;;0.82;0.70;;;22.70;69.10;;;;;;4956228;28;20223;-72
2022/07/02 08:17:59;;;;;;;0.63;0.63;;;22.60;69.00;;;;;;4956658;28;20189;-72
2022/07/02 08:20:25;;;;;;;0.65;0.60;;;22.70;68.70;;;;;;4956769;28;20232;-72
2022/07/02 08:22:51;;;;;;;1.05;0.60;;;22.60;68.90;;;;;;4983399;28;20284;-72
2022/07/02 08:25:18;;;;;;;0.73;0.70;;;22.70;69.00;;;;;;4975032;28;20205;-72
2022/07/02 08:27:45;;;;;;;0.50;0.50;;;22.70;68.70;;;;;;4993422;28;20185;-72
2022/07/02 08:30:12;;;;;;;0.70;0.68;;;22.60;68.80;;;;;;4964062;28;20217;-73
2022/07/02 08:32:39;;;;;;;0.70;0.70;;;22.70;69.10;;;;;;4975544;28;20200;-72
2022/07/02 08:35:06;;;;;;;0.63;0.63;;;22.70;68.70;;;;;;4955818;28;20304;-72
2022/07/02 08:37:32;;;;;;;0.52;0.52;;;22.70;68.40;;;;;;4940500;28;20177;-72
2022/07/02 08:39:58;;;;;;;0.70;0.70;;;22.70;69.10;;;;;;4939992;28;20257;-73
2022/07/02 08:42:28;;;;;;;0.50;0.50;;;22.70;68.30;;;;;;4972662;28;20337;-73
2022/07/02 08:44:57;;;;;;;0.50;0.50;;;22.70;67.80;;;;;;4939945;28;20236;-72
2022/07/02 08:47:24;;;;;;;0.70;0.70;;;22.70;67.90;;;;;;4956275;28;20228;-72
2022/07/02 08:49:56;;;;;;;0.60;0.60;;;22.80;68.00;;;;;;4956331;28;20227;-72
2022/07/02 08:52:24;;;;;;;0.70;0.70;;;22.80;67.90;;;;;;4964116;28;20197;-72
2022/07/02 08:54:51;;;;;;;0.60;0.60;;;22.80;67.60;;;;;;4958382;28;20576;-72
2022/07/02 08:57:17;;;;;;;1.50;0.70;;;22.80;67.40;;;;;;4975184;28;20180;-72
2022/07/02 08:59:43;;;;;;;0.70;0.70;;;22.80;67.30;;;;;;4992941;28;20191;-72
2022/07/02 09:02:14;;;;;;;0.50;0.50;;;22.80;67.20;;;;;;4959686;28;20206;-72
2022/07/02 09:04:46;;;;;;;0.50;0.50;;;22.80;67.00;;;;;;4958840;28;20243;-72
2022/07/02 09:07:15;;;;;;;0.52;0.52;;;22.90;67.10;;;;;;4952577;29;20187;-72
2022/07/02 09:09:42;;;;;;;0.60;0.60;;;22.80;67.20;;;;;;4945307;28;20216;-72
2022/07/02 09:12:17;;;;;;;0.63;0.63;;;22.80;66.90;;;;;;4959874;28;20206;-72
2022/07/02 09:14:44;;;;;;;0.75;0.60;;;22.80;67.40;;;;;;4943645;28;20217;-72
2022/07/02 09:17:12;;;;;;;0.60;0.60;;;22.80;67.00;;;;;;4959856;28;20186;-72
2022/07/02 09:19:39;;;;;;;0.70;0.70;;;22.80;67.00;;;;;;4977336;28;20209;-72
2022/07/02 09:22:07;;;;;;;1.38;0.68;;;22.90;67.70;;;;;;4985162;28;20228;-72
2022/07/02 09:24:36;;;;;;;0.70;0.70;;;22.90;67.00;;;;;;4992654;28;20185;-72
2022/07/02 09:27:15;;;;;;;0.40;0.40;;;22.90;66.90;;;;;;4995926;28;20268;-72
2022/07/02 09:29:59;;;;;;;0.50;0.50;;;22.90;66.80;;;;;;4996433;28;20235;-72
2022/07/02 09:32:25;;;;;;;0.50;0.50;;;22.80;66.60;;;;;;4978947;28;20625;-72
2022/07/02 09:34:53;;;;;;;0.70;0.50;;;22.80;66.40;;;;;;4995629;28;20214;-72
2022/07/02 09:37:24;;;;;;;1.02;0.65;;;22.90;66.60;;;;;;4962782;28;20184;-72
2022/07/02 09:39:53;;;;;;;0.60;0.60;;;22.90;66.30;;;;;;4962589;28;20181;-72
2022/07/02 09:42:33;;;;;;;0.90;0.70;;;22.80;66.50;;;;;;4978798;28;20184;-73
2022/07/02 09:45:03;;;;;;;0.70;0.50;;;22.90;66.50;;;;;;4962173;28;20212;-72
2022/07/02 09:47:48;;;;;;;0.75;0.70;;;22.90;66.70;;;;;;4979057;28;20288;-72
2022/07/02 09:50:21;;;;;;;0.85;0.70;;;22.90;66.40;;;;;;4978742;28;20197;-73
2022/07/02 09:52:56;;;;;;;0.70;0.60;;;22.90;66.60;;;;;;4954719;28;20177;-73
2022/07/02 09:55:26;;;;;;;0.55;0.55;;;22.90;66.10;;;;;;4977663;28;20209;-73
2022/07/02 09:57:58;;;;;;;0.50;0.50;;;22.90;66.40;;;;;;4978812;28;20284;-72
2022/07/02 10:00:28;;;;;;;0.60;0.60;;;22.80;66.20;;;;;;4978483;28;20677;-72
2022/07/02 10:02:57;;;;;;;0.50;0.50;;;22.80;66.10;;;;;;4978652;28;20180;-72
2022/07/02 10:05:27;;;;;;;0.65;0.60;;;22.80;66.20;;;;;;5033539;22;20724;-74
2022/07/02 10:07:58;;;;;;;0.50;0.47;;;22.90;65.80;;;;;;5025197;28;20646;-74
2022/07/02 10:10:38;;;;;;;0.55;0.55;;;22.80;65.90;;;;;;5050269;28;20204;-74
2022/07/02 10:13:09;;;;;;;0.77;0.70;;;22.80;66.00;;;;;;5017646;28;20237;-74
2022/07/02 10:15:55;;;;;;;1.35;0.60;;;22.90;66.10;;;;;;5034282;28;20195;-74
2022/07/02 10:18:24;;;;;;;0.73;0.70;;;22.80;65.90;;;;;;5015802;28;20179;-74
2022/07/02 10:20:56;;;;;;;0.70;0.70;;;22.80;66.00;;;;;;5008693;28;20193;-74
2022/07/02 10:23:23;;;;;;;0.68;0.68;;;22.90;66.00;;;;;;5050487;28;20218;-74
2022/07/02 10:25:50;;;;;;;0.57;0.50;;;22.90;66.30;;;;;;5016718;28;20216;-72
2022/07/02 10:28:16;;;;;;;0.60;0.60;;;22.90;66.30;;;;;;5049865;28;20214;-74
2022/07/02 10:30:43;;;;;;;0.73;0.55;;;22.80;66.20;;;;;;5033885;28;20242;-74
2022/07/02 10:33:38;;;;;;;0.60;0.60;;;22.90;66.40;;;;;;5033407;28;20171;-72
2022/07/02 10:36:06;;;;;;;0.50;0.50;;;22.90;65.90;;;;;;5032703;28;20184;-72
2022/07/02 10:38:35;;;;;;;0.70;0.70;;;22.90;66.10;;;;;;5017017;28;20206;-72
2022/07/02 10:41:02;;;;;;;0.40;0.40;;;22.80;65.70;;;;;;5033221;28;20187;-72
2022/07/02 10:43:31;;;;;;;0.60;0.60;;;22.90;66.00;;;;;;5033383;28;20230;-72
2022/07/02 10:46:10;;;;;;;1.10;0.60;;;22.90;66.10;;;;;;5032552;28;20180;-72
2022/07/02 10:48:55;;;;;;;1.23;0.85;;;22.90;66.20;;;;;;5025968;28;20184;-72
2022/07/02 10:51:38;;;;;;;0.70;0.70;;;22.90;66.40;;;;;;5044218;28;20211;-71
2022/07/02 10:54:06;;;;;;;0.50;0.50;;;22.90;66.50;;;;;;5033346;28;20207;-72
2022/07/02 10:56:51;;;;;;;0.60;0.60;;;22.90;66.50;;;;;;5032647;28;20655;-71
2022/07/02 10:59:38;;;;;;;0.60;0.60;;;22.90;66.60;;;;;;5035023;28;20176;-72
2022/07/02 11:02:06;;;;;;;0.57;0.57;;;22.90;66.70;;;;;;5033787;28;20179;-72
2022/07/02 11:04:34;;;;;;;0.80;0.70;;;22.90;66.70;;;;;;5033672;28;20269;-72
2022/07/02 11:07:11;;;;;;;0.50;0.50;;;22.90;66.90;;;;;;5033559;28;20183;-72
2022/07/02 11:10:02;;;;;;;0.70;0.70;;;22.90;67.00;;;;;;5034993;28;20222;-72
2022/07/02 11:13:01;;;;;;;0.77;0.77;;;22.90;67.00;;;;;;5038575;28;20233;-72
2022/07/02 11:15:36;;;;;;;0.60;0.60;;;22.90;67.00;;;;;;5032917;28;20200;-73
2022/07/02 11:18:07;;;;;;;0.50;0.50;;;22.90;67.10;;;;;;5033227;28;20194;-72
2022/07/02 11:20:35;;;;;;;2.35;0.70;;;22.90;67.00;;;;;;5025829;28;20179;-72
2022/07/02 11:23:01;;;;;;;0.80;0.63;;;22.90;68.00;;;;;;5033018;28;20660;-72
2022/07/02 11:25:32;;;;;;;1.83;0.73;;;22.90;67.00;;;;;;5015696;28;20694;-70
2022/07/02 11:28:00;;;;;;;0.70;0.70;;;22.90;67.30;;;;;;5033441;28;20187;-71
2022/07/02 11:30:32;;;;;;;1.33;0.70;;;22.90;67.30;;;;;;5015995;28;20694;-71
2022/07/02 11:32:59;;;;;;;0.60;0.60;;;22.90;67.30;;;;;;5031906;28;20180;-71
2022/07/02 11:35:25;;;;;;;1.02;0.60;;;22.90;67.40;;;;;;5048152;28;20207;-70
2022/07/02 11:37:58;;;;;;;2.25;0.80;;;22.90;67.30;;;;;;5049233;28;20218;-70
2022/07/02 11:40:26;;;;;;;7.82;1.20;;;22.90;67.30;;;;;;5049244;28;20191;-72
2022/07/02 11:42:52;;;;;;;3.65;0.90;;;22.90;67.60;;;;;;5032612;28;20219;-72
2022/07/02 11:45:18;;;;;;;2.30;0.93;;;22.90;67.50;;;;;;5048520;28;20273;-71
2022/07/02 11:47:49;;;;;;;2.13;0.70;;;22.90;67.20;;;;;;5032908;28;20187;-71
2022/07/02 11:50:26;;;;;;;0.88;0.77;;;22.90;67.30;;;;;;5007751;28;20289;-72
2022/07/02 11:52:52;;;;;;;1.08;0.70;;;22.90;67.20;;;;;;5016068;28;20179;-72
2022/07/02 11:55:18;;;;;;;2.22;0.80;;;22.90;67.20;;;;;;5048132;28;20210;-72
2022/07/02 11:57:44;;;;;;;1.25;0.80;;;22.90;67.10;;;;;;5033058;28;20532;-72
2022/07/02 12:00:11;;;;;;;1.48;0.77;;;22.90;67.10;;;;;;5048946;28;20244;-72
2022/07/02 12:02:39;;;;;;;0.77;0.77;;;22.90;66.80;;;;;;5048625;28;20194;-72
2022/07/02 12:05:19;;;;;;;0.88;0.70;;;22.90;66.90;;;;;;5047587;28;20242;-72
2022/07/02 12:07:46;;;;;;;1.65;1.00;;;22.90;67.10;;;;;;5031761;28;20210;-72
2022/07/02 12:10:13;;;;;;;3.97;0.65;;;22.90;67.00;;;;;;5015598;28;20302;-72
2022/07/02 12:12:40;;;;;;;1.33;0.80;;;22.90;66.40;;;;;;5015095;28;20179;-72
2022/07/02 12:15:07;;;;;;;0.70;0.70;;;22.90;67.00;;;;;;5030976;28;20199;-72
2022/07/02 12:17:35;;;;;;;2.15;0.70;;;22.90;66.70;;;;;;5014821;28;20183;-72
2022/07/02 12:20:06;;;;;;;0.95;0.68;;;22.90;66.90;;;;;;5019625;28;20191;-71
2022/07/02 12:22:34;;;;;;;0.60;0.60;;;22.90;66.60;;;;;;5012246;28;20204;-72
2022/07/02 12:25:01;;;;;;;1.80;0.75;;;22.90;66.30;;;;;;5027965;28;20212;-72
2022/07/02 12:27:27;;;;;;;0.60;0.60;;;22.90;66.30;;;;;;5013202;28;20215;-72
2022/07/02 12:29:54;;;;;;;0.70;0.70;;;22.90;66.40;;;;;;5012525;28;20230;-72
2022/07/02 12:32:26;;;;;;;0.70;0.70;;;22.90;66.30;;;;;;5011922;28;20555;-72
2022/07/02 12:35:02;;;;;;;0.70;0.70;;;23.00;66.30;;;;;;5012670;28;20204;-72
2022/07/02 12:37:47;;;;;;;2.90;0.60;;;23.00;66.20;;;;;;5028126;28;20210;-72
2022/07/02 12:40:21;;;;;;;0.50;0.50;;;22.90;66.10;;;;;;5028149;28;20330;-72
2022/07/02 12:42:54;;;;;;;1.30;0.70;;;22.90;66.10;;;;;;5011296;28;20186;-72
2022/07/02 12:45:29;;;;;;;0.80;0.80;;;22.90;66.20;;;;;;5027300;28;20214;-72
2022/07/02 12:48:04;;;;;;;0.57;0.52;;;22.90;65.80;;;;;;5014054;28;20196;-72
2022/07/02 12:50:39;;;;;;;0.80;0.65;;;23.00;65.90;;;;;;5022880;28;20202;-72
2022/07/02 12:53:13;;;;;;;0.70;0.70;;;23.00;65.70;;;;;;5014682;28;20186;-72
2022/07/02 12:55:58;;;;;;;0.60;0.60;;;22.90;65.50;;;;;;5046924;28;20202;-72
2022/07/02 12:58:25;;;;;;;0.57;0.57;;;23.00;65.90;;;;;;5031092;28;20233;-72
2022/07/02 13:00:51;;;;;;;0.70;0.70;;;23.00;65.60;;;;;;5047490;28;20226;-72